FlightSource - Aviation Photo Database

World Wide Airport Lookup


Search by ICAO
Or
Search by City

FlightSource.ca - Aviation Photo Database - Elmira Corning Regional Airport Information
Airport Identification
Name: Elmira Corning Regional Airport
ICAO: KELM
IATA: ELM
Airport Location
City: Elmira/Corning
Region: NY
Country: United States
Continent: North America
Latitude: 42.1599
Longitude: -76.8916
Airport Information
Type: Medium Airport
Elevation: 954 Feet ASL
Flight Status: KELM
More Info: KELM
Airport Weather    
Metar: KELM 231424Z 29004KT 10SM OVC029 M01/M07 A3013 RMK AO2 T10111072
TAF:


Advertisement